Time;durP1;ratioP1;P1;durP2;ratioP2;P2;SDS_P1;SDS_P2;PMS_P1;PMS_P2;Temp;Humidity;BMP_temperature;BMP_pressure;BME280_temperature;BME280_humidity;BME280_pressure;Samples;Min_cycle;Max_cycle;Signal;HPM_P1;HPM_P2
2023/01/06 00:00:35;;;;;;;1.00;0.80;;;9.70;99.90;;;;;;4936292;29;20052;-78
2023/01/06 00:03:02;;;;;;;1.58;0.80;;;9.70;99.90;;;;;;4932862;29;20052;-78
2023/01/06 00:05:29;;;;;;;1.38;0.75;;;9.70;99.90;;;;;;4936586;29;20048;-78
2023/01/06 00:07:56;;;;;;;1.75;0.90;;;9.70;99.90;;;;;;4932388;29;20405;-79
2023/01/06 00:10:23;;;;;;;1.85;1.10;;;9.70;99.90;;;;;;4929818;29;20048;-78
2023/01/06 00:12:50;;;;;;;1.35;0.70;;;9.60;99.90;;;;;;4928523;29;20151;-79
2023/01/06 00:15:18;;;;;;;1.58;1.00;;;9.60;99.90;;;;;;4926586;29;20051;-77
2023/01/06 00:17:45;;;;;;;0.63;0.60;;;9.60;99.90;;;;;;4919052;29;20052;-77
2023/01/06 00:20:12;;;;;;;1.10;0.90;;;9.60;99.90;;;;;;4918864;29;20395;-79
2023/01/06 00:22:40;;;;;;;0.98;0.70;;;9.60;99.90;;;;;;4934512;29;20088;-78
2023/01/06 00:25:09;;;;;;;1.30;0.70;;;9.60;99.90;;;;;;4936103;29;20056;-79
2023/01/06 00:27:36;;;;;;;0.77;0.70;;;9.60;99.90;;;;;;4936100;29;20061;-78
2023/01/06 00:30:05;;;;;;;0.95;0.82;;;9.60;99.90;;;;;;4919054;29;20055;-80
2023/01/06 00:32:31;;;;;;;1.73;0.80;;;9.60;99.90;;;;;;4918392;29;20047;-77
2023/01/06 00:34:58;;;;;;;1.40;0.60;;;9.60;99.90;;;;;;4927831;29;20434;-80
2023/01/06 00:37:25;;;;;;;1.00;0.90;;;9.50;99.90;;;;;;4919157;29;20566;-80
2023/01/06 00:39:51;;;;;;;0.82;0.70;;;9.50;99.90;;;;;;4918516;29;20058;-80
2023/01/06 00:42:18;;;;;;;1.30;0.90;;;9.50;99.90;;;;;;4928874;29;20433;-79
2023/01/06 00:44:45;;;;;;;1.70;0.93;;;9.50;99.90;;;;;;4933480;29;20087;-80
2023/01/06 00:47:11;;;;;;;3.70;0.88;;;9.50;99.90;;;;;;4935192;29;20055;-80
2023/01/06 00:49:38;;;;;;;1.10;0.90;;;9.40;99.90;;;;;;4933804;29;20051;-80
2023/01/06 00:52:05;;;;;;;1.45;0.77;;;9.40;99.90;;;;;;4919953;29;20048;-80
2023/01/06 00:54:32;;;;;;;1.33;0.95;;;9.40;99.90;;;;;;4921705;29;20048;-80
2023/01/06 00:56:58;;;;;;;0.95;0.80;;;9.40;99.90;;;;;;4923278;29;20394;-80
2023/01/06 00:59:25;;;;;;;0.80;0.80;;;9.40;99.90;;;;;;4925636;29;20067;-81
2023/01/06 01:01:55;;;;;;;4.65;1.00;;;9.40;99.90;;;;;;4927334;29;20047;-81
2023/01/06 01:04:23;;;;;;;2.95;1.02;;;9.40;99.90;;;;;;4927525;29;20414;-81
2023/01/06 01:06:51;;;;;;;1.45;1.00;;;9.40;99.90;;;;;;4923769;29;20509;-80
2023/01/06 01:09:21;;;;;;;2.60;0.93;;;9.30;99.90;;;;;;4923603;29;20048;-80
2023/01/06 01:14:45;;;;;;;1.58;1.00;;;9.30;99.90;;;;;;4919495;29;20063;-79
2023/01/06 01:17:22;;;;;;;1.83;0.90;;;9.30;99.90;;;;;;4920124;29;20048;-81
2023/01/06 01:19:51;;;;;;;1.98;0.90;;;9.30;99.90;;;;;;4922995;29;20489;-81
2023/01/06 01:22:17;;;;;;;4.05;1.10;;;9.20;99.90;;;;;;4934501;29;20528;-82
2023/01/06 01:24:44;;;;;;;2.17;1.30;;;9.20;99.90;;;;;;4932364;29;20052;-82
2023/01/06 01:27:11;;;;;;;4.05;1.33;;;9.20;99.90;;;;;;4931414;29;20055;-82
2023/01/06 01:29:37;;;;;;;1.42;0.82;;;9.20;99.90;;;;;;4932484;29;20050;-81
2023/01/06 01:32:05;;;;;;;0.70;0.70;;;9.20;99.90;;;;;;4931807;29;20056;-79
2023/01/06 01:34:31;;;;;;;1.63;1.00;;;9.20;99.90;;;;;;4923813;29;20135;-81
2023/01/06 01:36:58;;;;;;;1.38;1.10;;;9.20;99.90;;;;;;4924023;29;20048;-80
2023/01/06 01:39:27;;;;;;;1.92;1.35;;;9.20;99.90;;;;;;4924050;29;20060;-80
2023/01/06 01:41:55;;;;;;;2.35;1.27;;;9.30;99.90;;;;;;4929739;29;20431;-79
2023/01/06 01:44:59;;;;;;;1.67;1.00;;;9.40;99.90;;;;;;4939967;29;20071;-80
2023/01/06 01:47:41;;;;;;;6.57;1.33;;;9.40;99.90;;;;;;4927708;29;20141;-79
2023/01/06 01:50:26;;;;;;;1.33;1.20;;;9.50;99.90;;;;;;4928729;29;20054;-79
2023/01/06 01:52:59;;;;;;;2.55;1.60;;;9.60;99.90;;;;;;4929745;29;20062;-80
2023/01/06 01:55:27;;;;;;;4.30;1.38;;;9.70;99.90;;;;;;4923072;29;20062;-78
2023/01/06 01:58:01;;;;;;;2.55;1.92;;;9.80;99.90;;;;;;4922940;29;20512;-79
2023/01/06 02:00:28;;;;;;;2.30;1.40;;;9.80;99.90;;;;;;4937397;29;20052;-80
2023/01/06 02:02:55;;;;;;;3.47;1.70;;;9.90;99.90;;;;;;4926076;29;20052;-80
2023/01/06 02:05:24;;;;;;;2.65;1.90;;;10.00;99.90;;;;;;4923240;29;20052;-80
2023/01/06 02:07:52;;;;;;;3.13;1.75;;;10.10;99.90;;;;;;4936773;29;20529;-80
2023/01/06 02:10:21;;;;;;;2.63;1.60;;;10.10;99.90;;;;;;4938338;29;20054;-80
2023/01/06 02:12:50;;;;;;;4.20;2.30;;;10.10;99.90;;;;;;4936817;29;20055;-79
2023/01/06 02:15:23;;;;;;;3.53;2.13;;;10.20;99.90;;;;;;4933750;29;20052;-79
2023/01/06 02:18:14;;;;;;;3.00;1.98;;;10.20;99.90;;;;;;4930574;29;20048;-79
2023/01/06 02:21:03;;;;;;;2.55;2.17;;;10.30;99.90;;;;;;4930692;29;20056;-79
2023/01/06 02:24:05;;;;;;;3.67;2.20;;;10.30;99.90;;;;;;4943471;29;20056;-79
2023/01/06 02:26:43;;;;;;;3.58;2.10;;;10.30;99.90;;;;;;4922594;29;20056;-79
2023/01/06 02:29:34;;;;;;;3.22;2.50;;;10.40;99.90;;;;;;4924623;29;20048;-80
2023/01/06 02:32:04;;;;;;;2.40;2.13;;;10.40;99.90;;;;;;4938159;29;20145;-78
2023/01/06 02:34:52;;;;;;;2.67;2.10;;;10.40;99.90;;;;;;4923161;29;20070;-79
2023/01/06 02:37:30;;;;;;;3.72;2.38;;;10.40;99.90;;;;;;4932447;29;20050;-78
2023/01/06 02:40:00;;;;;;;3.60;2.10;;;10.50;99.90;;;;;;4934104;29;20143;-80
2023/01/06 02:42:47;;;;;;;3.22;2.17;;;10.50;99.90;;;;;;4932621;29;20056;-79
2023/01/06 02:45:46;;;;;;;2.38;1.98;;;10.50;99.90;;;;;;4930745;29;20068;-79
2023/01/06 02:48:34;;;;;;;2.33;1.95;;;10.50;99.90;;;;;;4930257;29;20437;-79
2023/01/06 02:51:15;;;;;;;2.83;1.95;;;10.50;99.90;;;;;;4934219;29;20421;-79
2023/01/06 02:53:51;;;;;;;3.50;1.92;;;10.50;99.90;;;;;;4926109;29;20059;-79
2023/01/06 02:56:24;;;;;;;2.65;1.60;;;10.50;99.90;;;;;;4927398;29;20048;-79
2023/01/06 02:59:14;;;;;;;2.20;1.80;;;10.50;99.90;;;;;;4936980;29;20178;-79
2023/01/06 03:01:45;;;;;;;2.03;1.40;;;10.50;99.90;;;;;;4936779;29;20051;-78
2023/01/06 03:04:17;;;;;;;2.08;1.67;;;10.50;99.90;;;;;;4935886;29;20139;-78
2023/01/06 03:06:47;;;;;;;1.70;1.42;;;10.50;99.90;;;;;;4935814;29;20498;-78
2023/01/06 03:09:23;;;;;;;1.90;1.48;;;10.60;99.90;;;;;;4934153;29;20056;-78
2023/01/06 03:11:50;;;;;;;1.63;1.48;;;10.60;99.90;;;;;;4928015;29;20055;-78
2023/01/06 03:14:34;;;;;;;2.20;1.48;;;10.60;99.90;;;;;;4930639;29;20055;-78
2023/01/06 03:17:01;;;;;;;3.25;2.15;;;10.60;99.90;;;;;;4926385;29;20458;-79
2023/01/06 03:19:28;;;;;;;2.50;1.45;;;10.60;99.90;;;;;;4922720;29;20063;-79
2023/01/06 03:21:55;;;;;;;1.73;1.40;;;10.70;99.90;;;;;;4929038;29;20052;-79
2023/01/06 03:24:22;;;;;;;2.65;1.50;;;10.70;99.90;;;;;;4924447;29;20060;-78
2023/01/06 03:26:51;;;;;;;3.83;1.90;;;10.70;99.90;;;;;;4921948;29;20052;-79
2023/01/06 03:29:20;;;;;;;2.72;1.88;;;10.70;99.90;;;;;;4924437;29;20044;-79
2023/01/06 03:31:54;;;;;;;2.55;1.40;;;10.70;99.90;;;;;;4925760;29;20067;-79
2023/01/06 03:34:46;;;;;;;2.28;1.27;;;10.70;99.90;;;;;;4919995;29;20044;-79
2023/01/06 03:37:43;;;;;;;2.47;1.60;;;10.70;99.90;;;;;;4923179;29;20059;-79
2023/01/06 03:40:24;;;;;;;2.38;1.48;;;10.70;99.90;;;;;;4926337;29;20063;-79
2023/01/06 03:43:10;;;;;;;2.03;1.30;;;10.80;99.90;;;;;;4923496;29;20059;-79
2023/01/06 03:45:55;;;;;;;1.85;1.30;;;10.80;99.90;;;;;;4922138;29;20063;-78
2023/01/06 03:48:51;;;;;;;1.63;1.13;;;10.70;99.90;;;;;;4922022;29;20056;-79
2023/01/06 03:51:45;;;;;;;2.08;1.35;;;10.70;99.90;;;;;;4933809;29;20052;-79
2023/01/06 03:54:36;;;;;;;1.33;1.23;;;10.70;99.90;;;;;;4921459;29;20231;-77
2023/01/06 03:57:13;;;;;;;1.15;1.05;;;10.60;99.90;;;;;;4925615;29;20052;-79
2023/01/06 03:59:45;;;;;;;1.42;1.20;;;10.60;99.90;;;;;;4926996;29;20055;-79
2023/01/06 04:02:12;;;;;;;2.05;1.08;;;10.50;99.90;;;;;;4929876;29;20060;-79
2023/01/06 04:04:40;;;;;;;1.13;1.02;;;10.40;99.90;;;;;;4929890;29;20071;-79
2023/01/06 04:07:06;;;;;;;2.63;0.90;;;10.40;99.90;;;;;;4929542;29;20064;-78
2023/01/06 04:09:33;;;;;;;3.10;1.20;;;10.30;99.90;;;;;;4923581;29;20403;-79
2023/01/06 04:14:45;;;;;;;1.17;0.98;;;10.20;99.90;;;;;;4919877;29;20426;-79
2023/01/06 04:17:11;;;;;;;0.80;0.75;;;10.20;99.90;;;;;;4920069;29;20155;-79
2023/01/06 04:19:39;;;;;;;1.75;0.98;;;10.20;99.90;;;;;;4925236;29;20056;-79
2023/01/06 04:22:05;;;;;;;3.00;1.10;;;10.20;99.90;;;;;;4933080;29;20059;-79
2023/01/06 04:24:32;;;;;;;0.90;0.75;;;10.20;99.90;;;;;;4934578;29;20055;-77
2023/01/06 04:26:59;;;;;;;1.08;0.70;;;10.10;99.90;;;;;;4933458;29;20048;-77
2023/01/06 04:29:25;;;;;;;0.70;0.68;;;10.10;99.90;;;;;;4942326;29;20065;-77
2023/01/06 04:31:52;;;;;;;1.10;0.73;;;10.10;99.90;;;;;;4937300;29;20044;-79
2023/01/06 04:34:19;;;;;;;1.55;0.88;;;10.20;99.90;;;;;;4925265;29;20059;-79
2023/01/06 04:36:45;;;;;;;0.50;0.50;;;10.20;99.90;;;;;;4921959;29;20410;-80
2023/01/06 04:39:12;;;;;;;0.60;0.60;;;10.20;99.90;;;;;;4920699;29;20048;-77
2023/01/06 04:41:38;;;;;;;0.60;0.60;;;10.20;99.90;;;;;;4936925;29;20059;-79
2023/01/06 04:44:05;;;;;;;0.65;0.50;;;10.20;99.90;;;;;;4931704;29;20049;-79
2023/01/06 04:46:32;;;;;;;0.70;0.60;;;10.20;99.90;;;;;;4933437;29;20071;-79
2023/01/06 04:48:59;;;;;;;0.57;0.57;;;10.20;99.90;;;;;;4932259;29;20048;-79
2023/01/06 04:51:25;;;;;;;0.75;0.52;;;10.20;99.90;;;;;;4927168;29;20067;-79
2023/01/06 04:53:52;;;;;;;2.47;0.73;;;10.20;99.90;;;;;;4928255;29;20043;-80
2023/01/06 04:56:18;;;;;;;0.70;0.70;;;10.20;99.90;;;;;;4932128;29;20055;-79
2023/01/06 04:58:45;;;;;;;1.20;0.98;;;10.20;99.90;;;;;;4932612;29;20052;-78
2023/01/06 05:01:12;;;;;;;0.82;0.50;;;10.30;99.90;;;;;;4925606;29;20055;-79
2023/01/06 05:03:40;;;;;;;1.13;0.80;;;10.30;99.90;;;;;;4926292;29;20048;-78
2023/01/06 05:06:08;;;;;;;2.13;0.93;;;10.20;99.90;;;;;;4926672;29;20052;-79
2023/01/06 05:08:37;;;;;;;0.77;0.73;;;10.20;99.90;;;;;;4928235;29;20542;-79
2023/01/06 05:11:13;;;;;;;0.93;0.85;;;10.20;99.90;;;;;;4929885;29;20055;-79
2023/01/06 05:13:40;;;;;;;1.05;0.70;;;10.20;99.90;;;;;;4932198;29;20048;-77
2023/01/06 05:16:14;;;;;;;1.20;0.80;;;10.10;99.90;;;;;;4937703;29;20051;-80
2023/01/06 05:18:41;;;;;;;2.30;0.80;;;10.10;99.90;;;;;;4935545;29;20090;-80
2023/01/06 05:21:08;;;;;;;0.82;0.70;;;10.10;99.90;;;;;;4937798;29;20063;-80
2023/01/06 05:23:38;;;;;;;3.50;1.00;;;10.00;99.90;;;;;;4940196;29;20056;-80
2023/01/06 05:26:05;;;;;;;1.05;0.90;;;10.00;99.90;;;;;;4945738;29;20036;-77
2023/01/06 05:28:33;;;;;;;1.90;1.05;;;10.00;99.90;;;;;;4962814;28;20027;-77
2023/01/06 05:31:04;;;;;;;0.80;0.80;;;9.90;99.90;;;;;;4957806;28;20032;-77
2023/01/06 05:33:32;;;;;;;1.08;0.98;;;9.90;99.90;;;;;;4954283;29;20033;-76
2023/01/06 05:36:00;;;;;;;2.35;0.90;;;9.90;99.90;;;;;;4958268;28;20059;-78
2023/01/06 05:38:27;;;;;;;1.30;0.90;;;9.90;99.90;;;;;;4952908;29;20058;-79
2023/01/06 05:40:55;;;;;;;1.02;0.70;;;9.80;99.90;;;;;;4935388;29;20055;-79
2023/01/06 05:43:23;;;;;;;0.80;0.77;;;9.80;99.90;;;;;;4935233;29;20056;-78
2023/01/06 05:45:50;;;;;;;1.40;1.02;;;9.80;99.90;;;;;;4934173;29;20145;-79
2023/01/06 05:48:16;;;;;;;1.20;0.95;;;9.70;99.90;;;;;;4932425;29;20051;-78
2023/01/06 05:50:43;;;;;;;0.80;0.80;;;9.70;99.90;;;;;;4931366;29;20048;-79
2023/01/06 05:53:10;;;;;;;1.35;0.68;;;9.70;99.90;;;;;;4928303;29;20051;-78
2023/01/06 05:55:36;;;;;;;0.82;0.82;;;9.70;99.90;;;;;;4923777;29;20138;-79
2023/01/06 05:58:03;;;;;;;1.13;0.90;;;9.80;99.90;;;;;;4941343;29;20043;-78
2023/01/06 06:00:30;;;;;;;1.23;0.90;;;9.70;99.90;;;;;;4940916;29;20055;-79
2023/01/06 06:02:56;;;;;;;0.93;0.82;;;9.80;99.90;;;;;;4938824;29;20059;-78
2023/01/06 06:05:23;;;;;;;0.80;0.80;;;9.80;99.90;;;;;;4936943;29;20505;-79
2023/01/06 06:07:54;;;;;;;1.00;0.77;;;9.70;99.90;;;;;;4931485;29;20060;-78
2023/01/06 06:10:21;;;;;;;1.38;0.85;;;9.70;99.90;;;;;;4929687;29;20051;-78
2023/01/06 06:12:51;;;;;;;1.38;1.02;;;9.70;99.90;;;;;;4929333;29;20048;-79
2023/01/06 06:15:18;;;;;;;1.58;1.17;;;9.70;99.90;;;;;;4925269;29;20059;-78
2023/01/06 06:17:45;;;;;;;1.20;1.10;;;9.70;99.90;;;;;;4924224;29;20060;-78
2023/01/06 06:20:12;;;;;;;1.10;0.90;;;9.80;99.90;;;;;;4922594;29;20413;-79
2023/01/06 06:22:38;;;;;;;2.20;1.00;;;9.80;99.90;;;;;;4930577;29;20055;-79
2023/01/06 06:25:05;;;;;;;1.38;1.27;;;9.80;99.90;;;;;;4938871;29;20066;-79
2023/01/06 06:27:32;;;;;;;4.80;1.58;;;9.80;99.90;;;;;;4936192;29;20142;-78
2023/01/06 06:29:58;;;;;;;1.85;1.30;;;9.80;99.90;;;;;;4934560;29;20055;-79
2023/01/06 06:32:29;;;;;;;1.05;0.95;;;9.80;99.90;;;;;;4931744;29;20040;-79
2023/01/06 06:34:55;;;;;;;;;;;9.70;99.90;;;;;;4931127;29;20052;-79
2023/01/06 06:37:22;;;;;;;0.73;0.63;;;9.70;99.90;;;;;;4932978;29;19926;-78
2023/01/06 06:39:49;;;;;;;1.15;0.80;;;9.70;99.90;;;;;;4934523;29;20052;-79
2023/01/06 06:42:15;;;;;;;0.60;0.60;;;9.70;99.90;;;;;;4935575;29;20048;-79
2023/01/06 06:44:42;;;;;;;2.90;0.80;;;9.70;99.90;;;;;;4937953;29;20055;-79
2023/01/06 06:47:08;;;;;;;0.80;0.80;;;9.70;99.90;;;;;;4938112;29;20512;-78
2023/01/06 06:49:35;;;;;;;2.58;1.52;;;9.60;99.90;;;;;;4926503;29;20059;-79
2023/01/06 06:52:02;;;;;;;3.05;1.20;;;9.70;99.90;;;;;;4933878;29;20075;-79
2023/01/06 06:54:28;;;;;;;1.67;1.30;;;9.60;99.90;;;;;;4938162;29;20047;-79
2023/01/06 06:56:55;;;;;;;1.45;1.23;;;9.60;99.90;;;;;;4933337;29;20055;-78
2023/01/06 06:59:22;;;;;;;0.90;0.80;;;9.60;99.90;;;;;;4932262;29;20051;-79
2023/01/06 07:01:49;;;;;;;1.40;1.17;;;9.50;99.90;;;;;;4933303;29;20123;-78
2023/01/06 07:04:15;;;;;;;2.00;1.70;;;9.50;99.90;;;;;;4926847;29;20048;-78
2023/01/06 07:06:42;;;;;;;3.30;1.70;;;9.50;99.90;;;;;;4927001;29;20189;-78
2023/01/06 07:09:09;;;;;;;1.20;1.02;;;9.50;99.90;;;;;;4943510;29;20051;-78
2023/01/06 07:11:35;;;;;;;1.73;1.10;;;9.40;99.90;;;;;;4924040;29;20055;-79
2023/01/06 07:14:02;;;;;;;1.33;0.82;;;9.50;99.90;;;;;;4932901;29;20500;-78
2023/01/06 07:16:29;;;;;;;1.00;0.90;;;9.40;99.90;;;;;;4938288;29;20054;-79
2023/01/06 07:18:56;;;;;;;0.98;0.88;;;9.40;99.90;;;;;;4934584;29;20437;-80
2023/01/06 07:21:22;;;;;;;0.90;0.88;;;9.40;99.90;;;;;;4930808;29;20062;-81
2023/01/06 07:23:49;;;;;;;0.77;0.77;;;9.40;99.90;;;;;;4931974;29;20164;-78
2023/01/06 07:26:16;;;;;;;1.05;0.70;;;9.40;99.90;;;;;;4928446;29;20505;-78
2023/01/06 07:28:42;;;;;;;0.93;0.82;;;9.40;99.90;;;;;;4927330;29;20062;-79
2023/01/06 07:31:09;;;;;;;1.35;1.00;;;9.40;99.90;;;;;;4934338;29;20048;-80
2023/01/06 07:33:36;;;;;;;0.90;0.80;;;9.40;99.90;;;;;;4924362;29;20048;-81
2023/01/06 07:36:03;;;;;;;2.88;0.93;;;9.40;99.90;;;;;;4923068;29;20055;-80
2023/01/06 07:38:30;;;;;;;2.42;1.50;;;9.40;99.90;;;;;;4921101;29;20044;-81
2023/01/06 07:41:00;;;;;;;3.45;1.67;;;9.40;99.90;;;;;;4921100;29;20056;-80
2023/01/06 07:43:26;;;;;;;0.82;0.82;;;9.40;99.90;;;;;;4929800;29;20044;-80
2023/01/06 07:45:53;;;;;;;0.88;0.80;;;9.40;99.90;;;;;;4933496;29;20048;-80
2023/01/06 07:48:20;;;;;;;1.35;0.90;;;9.40;99.90;;;;;;4930044;29;20110;-80
2023/01/06 07:50:46;;;;;;;2.47;1.38;;;9.40;99.90;;;;;;4933567;29;20063;-80
2023/01/06 07:53:13;;;;;;;2.25;0.70;;;9.40;99.90;;;;;;4935226;29;20422;-80
2023/01/06 07:55:40;;;;;;;1.35;0.60;;;9.40;99.90;;;;;;4929269;29;20056;-81
2023/01/06 07:58:08;;;;;;;1.00;0.75;;;9.50;99.90;;;;;;4937558;29;20048;-80
2023/01/06 08:00:35;;;;;;;1.65;0.68;;;9.50;99.90;;;;;;4931334;29;20522;-80
2023/01/06 08:03:04;;;;;;;0.77;0.70;;;9.60;99.90;;;;;;4921874;29;20052;-80
2023/01/06 08:05:31;;;;;;;2.28;0.90;;;9.70;99.90;;;;;;4931330;29;20090;-81
2023/01/06 08:07:58;;;;;;;0.70;0.60;;;9.70;99.90;;;;;;4935890;29;20060;-80
2023/01/06 08:10:24;;;;;;;0.98;0.60;;;9.80;99.90;;;;;;4937010;29;20058;-80
2023/01/06 08:12:51;;;;;;;0.65;0.50;;;9.80;99.90;;;;;;4935408;29;20052;-80
2023/01/06 08:15:18;;;;;;;1.30;1.02;;;9.90;99.90;;;;;;4934876;29;20051;-80
2023/01/06 08:17:44;;;;;;;0.95;0.88;;;10.00;99.90;;;;;;4929976;29;20079;-81
2023/01/06 08:20:11;;;;;;;2.20;1.30;;;10.10;99.90;;;;;;4930726;29;20053;-80
2023/01/06 08:22:38;;;;;;;1.98;0.93;;;10.10;99.90;;;;;;4927116;29;20419;-79
2023/01/06 08:25:05;;;;;;;0.60;0.60;;;10.10;99.90;;;;;;4924794;29;20093;-80
2023/01/06 08:27:31;;;;;;;0.82;0.43;;;10.20;99.90;;;;;;4930806;29;20130;-80
2023/01/06 08:29:58;;;;;;;1.45;0.80;;;10.20;99.90;;;;;;4924305;29;20093;-80
2023/01/06 08:32:25;;;;;;;0.70;0.70;;;10.30;99.90;;;;;;4928531;29;20048;-81
2023/01/06 08:34:51;;;;;;;1.33;1.08;;;10.30;99.90;;;;;;4928166;29;20058;-81
2023/01/06 08:37:18;;;;;;;2.53;2.00;;;10.40;99.90;;;;;;4929007;29;20680;-80
2023/01/06 08:39:44;;;;;;;1.63;1.40;;;10.40;99.90;;;;;;4933194;29;20052;-80
2023/01/06 08:42:12;;;;;;;1.13;0.70;;;10.50;99.90;;;;;;4932015;29;20073;-80
2023/01/06 08:44:38;;;;;;;1.83;0.68;;;10.50;99.90;;;;;;4929516;29;20056;-80
2023/01/06 08:47:05;;;;;;;1.95;1.15;;;10.50;99.90;;;;;;4936903;29;20059;-81
2023/01/06 08:49:32;;;;;;;2.20;0.68;;;10.60;99.90;;;;;;4920641;29;20050;-79
2023/01/06 08:51:59;;;;;;;3.60;0.88;;;10.60;99.90;;;;;;4927942;29;20083;-80
2023/01/06 08:54:28;;;;;;;0.60;0.60;;;10.60;99.90;;;;;;4924315;29;20044;-81
2023/01/06 08:56:55;;;;;;;0.80;0.70;;;10.70;99.90;;;;;;4928824;29;20075;-80
2023/01/06 08:59:22;;;;;;;1.30;0.80;;;10.70;99.90;;;;;;4930168;29;20469;-81
2023/01/06 09:01:49;;;;;;;2.05;0.93;;;10.80;99.90;;;;;;4926322;29;20490;-80
2023/01/06 09:04:16;;;;;;;0.93;0.70;;;10.80;99.90;;;;;;4928953;29;20052;-79
2023/01/06 09:06:43;;;;;;;1.98;0.57;;;10.80;99.90;;;;;;4930970;29;20498;-79
2023/01/06 09:09:10;;;;;;;0.68;0.60;;;10.90;99.90;;;;;;4930283;29;20056;-79
2023/01/06 09:11:43;;;;;;;0.65;0.60;;;10.90;99.90;;;;;;4929493;29;20048;-79
2023/01/06 09:14:12;;;;;;;1.52;0.82;;;11.00;99.90;;;;;;4925481;29;20045;-79
2023/01/06 09:16:40;;;;;;;2.22;0.82;;;11.00;99.90;;;;;;4929691;29;20476;-79
2023/01/06 09:19:09;;;;;;;1.90;0.70;;;11.10;99.90;;;;;;4926338;29;20059;-80
2023/01/06 09:21:36;;;;;;;0.80;0.70;;;11.10;99.90;;;;;;4930041;29;20054;-79
2023/01/06 09:24:03;;;;;;;1.17;0.80;;;11.10;99.90;;;;;;4931223;29;20149;-79
2023/01/06 09:26:30;;;;;;;0.75;0.50;;;11.20;99.90;;;;;;4931095;29;20044;-79
2023/01/06 09:28:57;;;;;;;1.42;0.60;;;11.20;99.90;;;;;;4924179;29;20058;-79
2023/01/06 09:31:23;;;;;;;1.40;0.70;;;11.20;99.90;;;;;;4928501;29;20044;-80
2023/01/06 09:33:50;;;;;;;1.33;0.68;;;11.20;99.90;;;;;;4929214;29;20072;-79
2023/01/06 09:36:17;;;;;;;1.08;0.90;;;11.30;99.90;;;;;;4930218;29;20123;-80
2023/01/06 09:38:43;;;;;;;2.15;0.70;;;11.30;99.90;;;;;;4925450;29;20043;-79
2023/01/06 09:41:41;;;;;;;0.55;0.50;;;11.30;99.90;;;;;;4928148;29;20056;-79
2023/01/06 09:44:16;;;;;;;0.95;0.80;;;11.30;99.90;;;;;;4932366;29;20055;-78
2023/01/06 09:46:47;;;;;;;1.95;0.95;;;11.40;99.90;;;;;;4926833;29;20052;-80
2023/01/06 09:49:42;;;;;;;1.00;0.55;;;11.40;99.90;;;;;;4929298;29;20436;-79
2023/01/06 09:52:16;;;;;;;2.58;0.50;;;11.40;99.90;;;;;;4931342;29;20049;-79
2023/01/06 09:54:52;;;;;;;0.90;0.70;;;11.50;99.90;;;;;;4934924;29;20044;-79
2023/01/06 09:57:39;;;;;;;0.45;0.43;;;11.50;99.90;;;;;;4935396;29;20074;-79
2023/01/06 10:00:35;;;;;;;1.77;0.60;;;11.60;99.90;;;;;;4932106;29;20487;-81
2023/01/06 10:03:03;;;;;;;1.02;0.60;;;11.60;99.90;;;;;;4932139;29;20055;-78
2023/01/06 10:05:39;;;;;;;0.55;0.45;;;11.60;99.90;;;;;;4930879;29;20059;-79
2023/01/06 10:08:47;;;;;;;2.50;0.73;;;11.60;99.90;;;;;;4929818;29;20055;-79
2023/01/06 10:11:29;;;;;;;2.28;0.57;;;11.60;99.90;;;;;;4931075;29;20055;-79
2023/01/06 10:14:14;;;;;;;0.82;0.52;;;11.60;99.90;;;;;;4925135;29;20048;-79
2023/01/06 10:17:16;;;;;;;1.15;0.85;;;11.60;99.90;;;;;;4930478;29;20048;-79
2023/01/06 10:20:09;;;;;;;0.50;0.47;;;11.70;99.90;;;;;;4864861;29;20504;-78
2023/01/06 10:23:08;;;;;;;2.10;0.55;;;11.70;99.90;;;;;;4931206;29;20047;-79
2023/01/06 10:25:49;;;;;;;1.70;0.60;;;11.80;99.90;;;;;;4933058;29;20062;-79
2023/01/06 10:28:28;;;;;;;1.25;0.60;;;11.80;99.90;;;;;;4932880;29;20043;-78
2023/01/06 10:31:04;;;;;;;0.65;0.65;;;11.80;99.90;;;;;;4932208;29;20062;-77
2023/01/06 10:33:36;;;;;;;1.02;0.45;;;11.90;99.90;;;;;;4934207;29;20123;-78
2023/01/06 10:36:04;;;;;;;2.45;0.90;;;11.90;99.90;;;;;;4930666;29;20070;-79
2023/01/06 10:38:49;;;;;;;2.85;0.80;;;11.90;99.90;;;;;;4932420;29;20047;-78
2023/01/06 10:41:41;;;;;;;1.33;1.10;;;11.90;99.90;;;;;;4933086;29;20063;-79
2023/01/06 10:44:11;;;;;;;1.90;0.80;;;11.90;99.90;;;;;;4934706;29;20056;-79
2023/01/06 10:46:39;;;;;;;1.50;0.60;;;11.90;99.90;;;;;;4930635;29;20111;-79
2023/01/06 10:49:14;;;;;;;2.80;0.60;;;11.90;99.90;;;;;;4933857;29;20107;-78
2023/01/06 10:51:44;;;;;;;2.13;0.93;;;12.00;99.90;;;;;;4934152;29;20063;-78
2023/01/06 10:54:18;;;;;;;3.72;0.90;;;12.00;99.90;;;;;;4933054;29;20106;-79
2023/01/06 10:56:51;;;;;;;0.88;0.50;;;12.00;99.90;;;;;;4940606;29;20056;-78
2023/01/06 10:59:18;;;;;;;0.68;0.60;;;12.00;99.90;;;;;;4937526;29;20044;-77
2023/01/06 11:01:54;;;;;;;0.50;0.50;;;11.90;99.90;;;;;;4952581;28;20035;-77
2023/01/06 11:04:22;;;;;;;1.55;0.70;;;11.90;99.90;;;;;;4949839;28;20040;-77
2023/01/06 11:06:58;;;;;;;0.50;0.40;;;11.90;99.90;;;;;;4956627;28;20103;-78
2023/01/06 11:09:40;;;;;;;1.05;0.50;;;11.80;99.90;;;;;;4957066;28;20036;-77
2023/01/06 11:12:19;;;;;;;0.90;0.50;;;11.80;99.90;;;;;;4954569;29;20052;-78
2023/01/06 11:14:59;;;;;;;0.57;0.40;;;11.70;99.90;;;;;;4928528;29;20066;-78
2023/01/06 11:17:27;;;;;;;0.73;0.57;;;11.70;99.90;;;;;;4929896;29;20058;-78
2023/01/06 11:20:13;;;;;;;1.02;0.70;;;11.70;99.90;;;;;;4926346;29;20181;-78
2023/01/06 11:22:41;;;;;;;0.82;0.60;;;11.60;99.90;;;;;;4935446;29;20052;-78
2023/01/06 11:25:20;;;;;;;0.57;0.50;;;11.50;99.90;;;;;;4930364;29;20047;-79
2023/01/06 11:27:49;;;;;;;0.82;0.60;;;11.50;99.90;;;;;;4930030;29;20529;-78
2023/01/06 11:30:26;;;;;;;1.17;0.50;;;11.50;99.90;;;;;;4930214;29;20079;-79
2023/01/06 11:32:53;;;;;;;0.52;0.40;;;11.50;99.90;;;;;;4927823;29;20052;-79
2023/01/06 11:35:25;;;;;;;0.50;0.45;;;11.50;99.90;;;;;;4928041;29;20075;-79
2023/01/06 11:38:01;;;;;;;0.30;0.30;;;11.50;99.90;;;;;;4932754;29;20422;-79
2023/01/06 11:40:31;;;;;;;0.70;0.50;;;11.50;99.90;;;;;;4933392;29;20043;-78
2023/01/06 11:43:02;;;;;;;0.80;0.68;;;11.50;99.90;;;;;;4930029;29;20051;-78
2023/01/06 11:45:35;;;;;;;0.40;0.40;;;11.60;99.90;;;;;;4933236;29;20517;-79
2023/01/06 11:48:06;;;;;;;4.57;0.60;;;11.50;99.90;;;;;;4927462;29;20541;-77
2023/01/06 11:50:33;;;;;;;0.95;0.65;;;11.50;99.90;;;;;;4931296;29;20047;-79
2023/01/06 11:53:02;;;;;;;0.75;0.60;;;11.40;99.90;;;;;;4930032;29;20048;-79
2023/01/06 11:55:29;;;;;;;0.55;0.55;;;11.40;99.90;;;;;;4934383;29;20048;-79
2023/01/06 11:58:07;;;;;;;1.52;0.70;;;11.40;99.90;;;;;;4928932;29;20646;-79
2023/01/06 12:01:06;;;;;;;0.88;0.60;;;11.30;99.90;;;;;;4937373;29;20420;-80
2023/01/06 12:03:40;;;;;;;0.88;0.80;;;11.30;99.90;;;;;;4927590;29;20044;-78
2023/01/06 12:06:09;;;;;;;1.35;0.85;;;11.30;99.90;;;;;;4935754;29;21024;-78
2023/01/06 12:09:00;;;;;;;0.77;0.52;;;11.30;99.90;;;;;;4941736;29;20047;-78
2023/01/06 12:11:50;;;;;;;0.50;0.50;;;11.30;99.90;;;;;;4935933;29;20505;-78
2023/01/06 12:14:21;;;;;;;0.50;0.40;;;11.30;99.90;;;;;;4923045;29;20050;-79
2023/01/06 12:17:10;;;;;;;0.40;0.40;;;11.40;99.90;;;;;;4919609;29;20080;-79
2023/01/06 12:20:01;;;;;;;1.45;0.50;;;11.40;99.90;;;;;;4918367;29;20047;-78
2023/01/06 12:22:37;;;;;;;;;;;11.30;99.90;;;;;;4927155;29;20043;-79
2023/01/06 12:25:12;;;;;;;1.33;0.40;;;11.40;99.90;;;;;;4934863;29;20380;-79
2023/01/06 12:27:44;;;;;;;0.55;0.55;;;11.40;99.90;;;;;;4924282;29;20083;-79
2023/01/06 12:30:35;;;;;;;1.58;1.00;;;11.40;99.90;;;;;;4925332;29;20056;-80
2023/01/06 12:33:16;;;;;;;2.53;1.20;;;11.50;99.90;;;;;;4889426;29;20048;-79
2023/01/06 12:35:44;;;;;;;;;;;11.50;99.90;;;;;;4926818;29;20142;-80
2023/01/06 12:38:30;;;;;;;1.38;0.77;;;11.60;99.90;;;;;;4929849;29;19930;-80
2023/01/06 12:41:08;;;;;;;0.88;0.60;;;11.60;99.90;;;;;;4924181;29;20418;-78
2023/01/06 12:43:39;;;;;;;3.05;0.68;;;11.70;99.90;;;;;;4921494;29;20052;-80
2023/01/06 12:46:27;;;;;;;1.55;0.60;;;11.70;99.90;;;;;;4922808;29;20062;-80
2023/01/06 12:49:07;;;;;;;0.52;0.52;;;11.80;99.90;;;;;;4934295;29;20048;-79
2023/01/06 12:51:49;;;;;;;0.60;0.60;;;11.90;99.90;;;;;;4933956;29;20130;-79
2023/01/06 12:54:23;;;;;;;0.68;0.50;;;12.00;99.90;;;;;;4930373;29;20044;-79
2023/01/06 12:57:19;;;;;;;0.40;0.40;;;12.00;99.90;;;;;;4929178;29;20082;-79
2023/01/06 13:00:07;;;;;;;1.85;0.50;;;12.00;99.90;;;;;;4918810;29;20391;-78
2023/01/06 13:02:52;;;;;;;1.52;0.82;;;12.10;99.90;;;;;;4921339;29;20056;-80
2023/01/06 13:05:28;;;;;;;0.68;0.68;;;12.10;99.90;;;;;;4922528;29;20055;-78
2023/01/06 13:08:33;;;;;;;2.00;0.90;;;12.10;99.90;;;;;;4921244;29;20063;-80
2023/01/06 13:11:12;;;;;;;0.77;0.57;;;12.10;99.90;;;;;;4921990;29;20091;-80
2023/01/06 13:14:16;;;;;;;1.15;0.70;;;12.10;99.90;;;;;;4932611;29;20062;-80
2023/01/06 13:16:49;;;;;;;1.80;0.60;;;12.10;99.90;;;;;;4927510;29;20044;-79
2023/01/06 13:19:53;;;;;;;0.65;0.50;;;12.10;99.90;;;;;;4932412;29;20123;-79
2023/01/06 13:23:02;;;;;;;0.68;0.68;;;12.10;99.90;;;;;;4932266;29;20047;-79